createdAt,value
2023-05-25T00:01:31.015Z,100304.56
2023-05-25T00:04:00.509Z,100321.16
2023-05-25T00:06:29.897Z,100316.88
2023-05-25T00:08:58.151Z,100323.47
2023-05-25T00:11:26.781Z,100320.28
2023-05-25T00:13:56.373Z,100316.81
2023-05-25T00:16:24.274Z,100313.97
2023-05-25T00:18:53.190Z,100304.00
2023-05-25T00:21:21.266Z,100316.06
2023-05-25T00:23:49.082Z,100311.28
2023-05-25T00:26:16.960Z,100301.84
2023-05-25T00:28:44.911Z,100304.59
2023-05-25T00:31:14.447Z,100304.88
2023-05-25T00:33:42.450Z,100299.41
2023-05-25T00:36:10.711Z,100305.94
2023-05-25T00:38:38.791Z,100306.84
2023-05-25T00:41:07.070Z,100311.91
2023-05-25T00:43:35.242Z,100310.75
2023-05-25T00:46:04.097Z,100308.31
2023-05-25T00:48:34.386Z,100310.41
2023-05-25T00:51:03.187Z,100308.69
2023-05-25T00:53:33.807Z,100309.44
2023-05-25T00:56:06.266Z,100316.22
2023-05-25T00:58:35.854Z,100319.38
2023-05-25T01:01:06.364Z,100325.41
2023-05-25T01:03:37.975Z,100322.44
2023-05-25T01:06:10.921Z,100315.44
2023-05-25T01:08:41.464Z,100319.78
2023-05-25T01:11:12.846Z,100323.75
2023-05-25T01:13:42.693Z,100328.41
2023-05-25T01:16:10.768Z,100312.97
2023-05-25T01:18:41.867Z,100319.38
2023-05-25T01:21:17.950Z,100323.75
2023-05-25T01:23:52.157Z,100326.13
2023-05-25T01:26:24.778Z,100328.41
2023-05-25T01:28:54.030Z,100327.59
2023-05-25T01:31:24.090Z,100329.13
2023-05-25T01:33:53.106Z,100326.66
2023-05-25T01:36:22.359Z,100324.59
2023-05-25T01:38:50.520Z,100320.38
2023-05-25T01:41:18.330Z,100325.47
2023-05-25T01:43:46.862Z,100323.28
2023-05-25T01:46:24.577Z,100324.59
2023-05-25T01:48:58.327Z,100324.38
2023-05-25T01:51:37.865Z,100333.09
2023-05-25T01:54:12.988Z,100331.00
2023-05-25T01:56:43.089Z,100326.81
2023-05-25T01:59:12.441Z,100337.69
2023-05-25T02:01:42.178Z,100340.88
2023-05-25T02:04:10.723Z,100343.22
2023-05-25T02:06:40.219Z,100345.91
2023-05-25T02:09:08.619Z,100348.13
2023-05-25T02:11:36.597Z,100341.81
2023-05-25T02:14:04.545Z,100346.88
2023-05-25T02:16:32.757Z,100339.28
2023-05-25T02:19:00.869Z,100338.28
2023-05-25T02:21:28.853Z,100336.94
2023-05-25T02:23:58.486Z,100337.84
2023-05-25T02:26:26.466Z,100325.75
2023-05-25T02:28:54.347Z,100328.97
2023-05-25T02:31:22.257Z,100321.13
2023-05-25T02:33:50.052Z,100323.94
2023-05-25T02:36:18.918Z,100322.72
2023-05-25T02:38:49.710Z,100320.69
2023-05-25T02:41:19.899Z,100313.09
2023-05-25T02:43:48.046Z,100315.09
2023-05-25T02:46:15.874Z,100320.34
2023-05-25T02:48:43.958Z,100326.00
2023-05-25T02:51:11.691Z,100317.66
2023-05-25T02:53:39.561Z,100328.31
2023-05-25T02:56:10.281Z,100325.56
2023-05-25T02:58:39.671Z,100333.47
2023-05-25T03:01:10.268Z,100340.25
2023-05-25T03:03:38.119Z,100345.34
2023-05-25T03:06:06.176Z,100340.63
2023-05-25T03:08:33.922Z,100343.00
2023-05-25T03:11:01.728Z,100343.00
2023-05-25T03:13:29.463Z,100339.59
2023-05-25T03:15:58.630Z,100343.06
2023-05-25T03:18:26.361Z,100345.44
2023-05-25T03:20:54.185Z,100347.16
2023-05-25T03:23:22.089Z,100350.03
2023-05-25T03:25:49.975Z,100342.38
2023-05-25T03:28:17.724Z,100348.59
2023-05-25T03:30:45.555Z,100352.13
2023-05-25T03:33:14.916Z,100347.84
2023-05-25T03:35:42.877Z,100346.19
2023-05-25T03:38:10.905Z,100347.59
2023-05-25T03:40:38.614Z,100346.41
2023-05-25T03:43:06.651Z,100351.00
2023-05-25T03:45:34.365Z,100350.09
2023-05-25T03:48:02.242Z,100354.13
2023-05-25T03:50:31.345Z,100361.44
2023-05-25T03:52:58.992Z,100371.19
2023-05-25T03:55:26.773Z,100367.78
2023-05-25T03:57:54.548Z,100364.97
2023-05-25T04:00:22.605Z,100372.22
2023-05-25T04:02:50.463Z,100368.91
2023-05-25T04:05:19.007Z,100368.03
2023-05-25T04:07:48.396Z,100378.06
2023-05-25T04:10:16.142Z,100374.75
2023-05-25T04:12:44.018Z,100382.97
2023-05-25T04:15:14.275Z,100389.06
2023-05-25T04:17:42.155Z,100389.81
2023-05-25T04:20:11.050Z,100389.75
2023-05-25T04:22:39.613Z,100387.44
2023-05-25T04:25:10.465Z,100387.44
2023-05-25T04:27:38.416Z,100396.25
2023-05-25T04:30:08.593Z,100392.34
2023-05-25T04:32:37.533Z,100403.78
2023-05-25T04:35:09.118Z,100403.00
2023-05-25T04:37:37.187Z,100397.59
2023-05-25T04:40:10.386Z,100404.19
2023-05-25T04:42:40.071Z,100400.88
2023-05-25T04:45:10.228Z,100402.41
2023-05-25T04:47:41.520Z,100401.84
2023-05-25T04:50:11.054Z,100401.19
2023-05-25T04:52:38.857Z,100401.72
2023-05-25T04:55:07.504Z,100400.44
2023-05-25T04:57:35.311Z,100411.69
2023-05-25T05:00:05.847Z,100403.81
2023-05-25T05:02:33.785Z,100403.50
2023-05-25T05:05:01.702Z,100408.88
2023-05-25T05:07:29.419Z,100404.34
2023-05-25T05:09:57.207Z,100414.13
2023-05-25T05:12:24.900Z,100401.13
2023-05-25T05:14:53.126Z,100411.78
2023-05-25T05:17:23.110Z,100415.13
2023-05-25T05:19:50.976Z,100417.75
2023-05-25T05:22:18.758Z,100416.28
2023-05-25T05:24:46.786Z,100418.09
2023-05-25T05:27:15.273Z,100419.94
2023-05-25T05:29:43.457Z,100417.19
2023-05-25T05:32:11.214Z,100421.19
2023-05-25T05:34:40.379Z,100424.06
2023-05-25T05:37:08.134Z,100416.53
2023-05-25T05:39:36.185Z,100410.13
2023-05-25T05:42:03.994Z,100421.56
2023-05-25T05:44:31.775Z,100420.88
2023-05-25T05:47:01.906Z,100422.31
2023-05-25T05:49:30.418Z,100423.16
2023-05-25T05:52:00.207Z,100426.16
2023-05-25T05:54:28.855Z,100426.41
2023-05-25T05:56:56.791Z,100425.28
2023-05-25T05:59:25.035Z,100424.59
2023-05-25T06:01:52.950Z,100417.03
2023-05-25T06:04:20.996Z,100421.94
2023-05-25T06:06:49.049Z,100422.44
2023-05-25T06:09:18.912Z,100431.84
2023-05-25T06:12:11.872Z,100417.03
2023-05-25T06:14:40.103Z,100420.59
2023-05-25T06:17:07.975Z,100417.81
2023-05-25T06:19:35.922Z,100425.00
2023-05-25T06:22:03.791Z,100432.25
2023-05-25T06:24:32.888Z,100432.06
2023-05-25T06:27:00.678Z,100444.47
2023-05-25T06:29:28.503Z,100446.31
2023-05-25T06:31:56.330Z,100442.25
2023-05-25T06:34:24.354Z,100445.22
2023-05-25T06:36:52.155Z,100440.81
2023-05-25T06:39:20.229Z,100448.97
2023-05-25T06:41:50.948Z,100444.69
2023-05-25T06:44:18.832Z,100452.31
2023-05-25T06:46:47.009Z,100443.78
2023-05-25T06:49:14.925Z,100446.19
2023-05-25T06:51:42.560Z,100450.31
2023-05-25T06:54:12.075Z,100453.22
2023-05-25T06:56:40.012Z,100453.59
2023-05-25T06:59:09.088Z,100446.63
2023-05-25T07:01:37.593Z,100449.00
2023-05-25T07:04:05.380Z,100452.59
2023-05-25T07:06:33.103Z,100454.69
2023-05-25T07:09:00.868Z,100456.50
2023-05-25T07:11:28.740Z,100452.88
2023-05-25T07:13:56.767Z,100457.56
2023-05-25T07:16:26.345Z,100453.84
2023-05-25T07:18:54.916Z,100452.09
2023-05-25T07:21:22.629Z,100450.75
2023-05-25T07:23:50.525Z,100453.16
2023-05-25T07:26:18.508Z,100450.69
2023-05-25T07:28:46.209Z,100455.47
2023-05-25T07:31:14.976Z,100446.47
2023-05-25T07:33:44.180Z,100452.13
2023-05-25T07:36:12.548Z,100447.50
2023-05-25T07:38:40.741Z,100446.75
2023-05-25T07:41:08.500Z,100450.13
2023-05-25T07:43:36.360Z,100450.31
2023-05-25T07:46:04.141Z,100449.50
2023-05-25T07:48:31.977Z,100453.72
2023-05-25T07:51:01.027Z,100446.66
2023-05-25T07:53:28.815Z,100447.47
2023-05-25T07:55:56.558Z,100457.25
2023-05-25T07:58:24.361Z,100452.00
2023-05-25T08:00:52.428Z,100452.72
2023-05-25T08:03:31.820Z,100443.94
2023-05-25T08:06:06.654Z,100456.25
2023-05-25T08:08:35.348Z,100447.19
2023-05-25T08:11:03.052Z,100457.84
2023-05-25T08:13:31.017Z,100455.69
2023-05-25T08:15:58.870Z,100459.91
2023-05-25T08:18:26.725Z,100447.81
2023-05-25T08:20:54.494Z,100454.03
2023-05-25T08:23:23.571Z,100454.28
2023-05-25T08:25:51.584Z,100451.78
2023-05-25T08:28:19.360Z,100461.31
2023-05-25T08:30:47.347Z,100453.63
2023-05-25T08:33:15.389Z,100462.06
2023-05-25T08:35:43.836Z,100455.88
2023-05-25T08:38:12.236Z,100460.88
2023-05-25T08:40:43.898Z,100456.50
2023-05-25T08:43:11.989Z,100463.31
2023-05-25T08:45:45.114Z,100466.03
2023-05-25T08:48:27.017Z,100462.53
2023-05-25T08:51:10.134Z,100469.56
2023-05-25T08:53:40.913Z,100457.53
2023-05-25T08:56:14.770Z,100470.69
2023-05-25T08:58:48.110Z,100475.94
2023-05-25T09:01:19.679Z,100463.47
2023-05-25T09:03:48.246Z,100458.63
2023-05-25T09:06:17.404Z,100463.31
2023-05-25T09:08:45.978Z,100465.72
2023-05-25T09:11:17.518Z,100457.50
2023-05-25T09:13:54.822Z,100460.44
2023-05-25T09:16:24.231Z,100457.66
2023-05-25T09:18:51.911Z,100463.03
2023-05-25T09:21:19.805Z,100457.78
2023-05-25T09:23:48.524Z,100459.03
2023-05-25T09:26:17.583Z,100451.06
2023-05-25T09:28:49.348Z,100452.16
2023-05-25T09:31:17.552Z,100452.69
2023-05-25T09:33:47.323Z,100454.47
2023-05-25T09:36:17.928Z,100456.16
2023-05-25T09:38:46.980Z,100457.09
2023-05-25T09:41:17.080Z,100459.41
2023-05-25T09:43:54.785Z,100455.63
2023-05-25T09:46:37.395Z,100455.19
2023-05-25T09:49:08.499Z,100443.53
2023-05-25T09:51:36.754Z,100446.09
2023-05-25T09:54:05.366Z,100455.59
2023-05-25T09:56:34.517Z,100456.81
2023-05-25T09:59:02.404Z,100448.31
2023-05-25T10:01:30.873Z,100452.75
2023-05-25T10:04:04.279Z,100449.44
2023-05-25T10:06:33.213Z,100453.53
2023-05-25T10:09:02.326Z,100461.75
2023-05-25T10:11:30.667Z,100451.91
2023-05-25T10:14:03.860Z,100461.03
2023-05-25T10:16:35.161Z,100457.34
2023-05-25T10:19:07.840Z,100445.88
2023-05-25T10:21:38.773Z,100459.38
2023-05-25T10:24:14.690Z,100455.00
2023-05-25T10:26:50.491Z,100453.53
2023-05-25T10:29:21.316Z,100465.56
2023-05-25T10:31:51.505Z,100459.22
2023-05-25T10:34:20.706Z,100454.91
2023-05-25T10:36:49.383Z,100461.34
2023-05-25T10:39:20.178Z,100455.88
2023-05-25T10:41:49.366Z,100461.75
2023-05-25T10:44:19.642Z,100462.47
2023-05-25T10:46:48.334Z,100450.16
2023-05-25T10:49:27.218Z,100457.41
2023-05-25T10:51:59.789Z,100459.56
2023-05-25T10:54:31.873Z,100451.09
2023-05-25T10:57:09.562Z,100452.28
2023-05-25T10:59:41.983Z,100458.72
2023-05-25T11:02:12.475Z,100450.31
2023-05-25T11:04:40.405Z,100448.13
2023-05-25T11:07:13.550Z,100449.13
2023-05-25T11:09:57.298Z,100445.50
2023-05-25T11:12:25.356Z,100437.13
2023-05-25T11:15:16.441Z,100437.94
2023-05-25T11:17:59.839Z,100442.78
2023-05-25T11:20:30.105Z,100443.28
2023-05-25T11:22:59.954Z,100444.59
2023-05-25T11:25:38.528Z,100445.50
2023-05-25T11:28:07.515Z,100434.06
2023-05-25T11:30:36.911Z,100433.59
2023-05-25T11:33:07.849Z,100436.00
2023-05-25T11:35:37.314Z,100442.59
2023-05-25T11:38:09.510Z,100434.66
2023-05-25T11:40:40.216Z,100434.50
2023-05-25T11:43:10.888Z,100425.22
2023-05-25T11:45:39.918Z,100419.22
2023-05-25T11:48:07.953Z,100417.19
2023-05-25T11:50:35.786Z,100417.25
2023-05-25T11:53:07.301Z,100423.72
2023-05-25T11:55:35.385Z,100423.25
2023-05-25T11:58:04.102Z,100409.16
2023-05-25T12:00:32.483Z,100420.09
2023-05-25T12:03:02.428Z,100411.34
2023-05-25T12:05:38.828Z,100401.09
2023-05-25T12:08:06.930Z,100406.66
2023-05-25T12:10:35.204Z,100404.22
2023-05-25T12:13:04.558Z,100406.38
2023-05-25T12:15:32.518Z,100407.91
2023-05-25T12:18:02.011Z,100405.63
2023-05-25T12:20:30.164Z,100397.44
2023-05-25T12:22:59.106Z,100384.00
2023-05-25T12:25:27.358Z,100394.47
2023-05-25T12:28:11.160Z,100393.78
2023-05-25T12:30:39.386Z,100391.53
2023-05-25T12:33:08.898Z,100390.06
2023-05-25T12:35:46.769Z,100375.84
2023-05-25T12:38:16.033Z,100378.97
2023-05-25T12:40:44.355Z,100375.94
2023-05-25T12:43:13.128Z,100383.91
2023-05-25T12:45:41.588Z,100379.38
2023-05-25T12:48:10.899Z,100379.91
2023-05-25T12:50:39.068Z,100369.47
2023-05-25T12:53:06.752Z,100372.81
2023-05-25T12:55:38.373Z,100370.03
2023-05-25T12:58:07.840Z,100360.78
2023-05-25T13:00:38.154Z,100371.28
2023-05-25T13:03:07.469Z,100365.16
2023-05-25T13:05:38.795Z,100368.13
2023-05-25T13:08:07.549Z,100368.28
2023-05-25T13:10:35.691Z,100363.53
2023-05-25T13:13:04.561Z,100361.09
2023-05-25T13:15:32.449Z,100376.31
2023-05-25T13:18:00.364Z,100366.97
2023-05-25T13:20:32.330Z,100358.13
2023-05-25T13:23:03.035Z,100372.09
2023-05-25T13:25:30.978Z,100371.91
2023-05-25T13:28:00.267Z,100373.25
2023-05-25T13:30:28.313Z,100370.25
2023-05-25T13:32:56.099Z,100351.19
2023-05-25T13:35:37.622Z,100363.84
2023-05-25T13:38:07.032Z,100363.03
2023-05-25T13:40:35.145Z,100361.13
2023-05-25T13:43:03.194Z,100354.81
2023-05-25T13:45:30.992Z,100353.06
2023-05-25T13:47:59.242Z,100357.09
2023-05-25T13:50:27.589Z,100357.50
2023-05-25T13:52:55.932Z,100358.34
2023-05-25T13:55:25.707Z,100356.81
2023-05-25T13:57:54.653Z,100354.34
2023-05-25T14:00:23.795Z,100346.59
2023-05-25T14:02:51.695Z,100348.38
2023-05-25T14:05:20.165Z,100353.13
2023-05-25T14:07:48.117Z,100351.97
2023-05-25T14:10:16.529Z,100340.78
2023-05-25T14:12:45.834Z,100334.38
2023-05-25T14:15:13.551Z,100333.69
2023-05-25T14:17:41.356Z,100339.59
2023-05-25T14:20:09.890Z,100345.91
2023-05-25T14:22:37.851Z,100332.28
2023-05-25T14:25:06.560Z,100324.91
2023-05-25T14:27:34.465Z,100329.06
2023-05-25T14:30:03.803Z,100328.91
2023-05-25T14:32:31.664Z,100323.91
2023-05-25T14:34:59.691Z,100326.03
2023-05-25T14:37:27.474Z,100313.69
2023-05-25T14:39:55.410Z,100322.88
2023-05-25T14:42:23.203Z,100322.78
2023-05-25T14:44:50.975Z,100316.34
2023-05-25T14:47:20.064Z,100310.34
2023-05-25T14:49:47.839Z,100317.66
2023-05-25T14:52:15.644Z,100328.13
2023-05-25T14:54:44.895Z,100326.72
2023-05-25T14:57:12.991Z,100326.31
2023-05-25T14:59:40.646Z,100323.34
2023-05-25T15:02:08.434Z,100317.50
2023-05-25T15:04:37.564Z,100314.66
2023-05-25T15:07:05.730Z,100312.47
2023-05-25T15:09:34.003Z,100311.34
2023-05-25T15:12:01.853Z,100323.75
2023-05-25T15:14:29.704Z,100317.09
2023-05-25T15:16:57.423Z,100313.84
2023-05-25T15:19:25.411Z,100316.47
2023-05-25T15:21:54.661Z,100318.38
2023-05-25T15:24:22.373Z,100328.63
2023-05-25T15:26:50.060Z,100311.41
2023-05-25T15:29:17.783Z,100315.22
2023-05-25T15:31:45.528Z,100312.75
2023-05-25T15:34:13.466Z,100316.25
2023-05-25T15:36:41.221Z,100306.94
2023-05-25T15:39:11.496Z,100307.00
2023-05-25T15:41:39.191Z,100299.09
2023-05-25T15:44:08.593Z,100307.66
2023-05-25T15:46:36.612Z,100309.38
2023-05-25T15:49:10.769Z,100305.09
2023-05-25T15:51:44.167Z,100302.59
2023-05-25T15:54:14.730Z,100308.91
2023-05-25T15:56:42.978Z,100306.78
2023-05-25T15:59:12.218Z,100307.06
2023-05-25T16:01:40.129Z,100298.34
2023-05-25T16:04:08.169Z,100297.31
2023-05-25T16:06:36.308Z,100303.69
2023-05-25T16:09:04.521Z,100307.50
2023-05-25T16:11:34.594Z,100300.09
2023-05-25T16:14:02.502Z,100303.72
2023-05-25T16:16:30.410Z,100302.94
2023-05-25T16:19:00.380Z,100303.81
2023-05-25T16:21:28.094Z,100295.81
2023-05-25T16:23:55.816Z,100306.75
2023-05-25T16:26:23.722Z,100298.91
2023-05-25T16:28:52.836Z,100299.88
2023-05-25T16:31:20.596Z,100300.38
2023-05-25T16:33:48.910Z,100294.84
2023-05-25T16:36:17.326Z,100301.72
2023-05-25T16:38:45.842Z,100293.34
2023-05-25T16:41:13.636Z,100300.53
2023-05-25T16:43:41.497Z,100298.66
2023-05-25T16:46:10.915Z,100291.88
2023-05-25T16:48:39.236Z,100290.50
2023-05-25T16:51:07.673Z,100292.75
2023-05-25T16:53:35.422Z,100299.94
2023-05-25T16:56:03.176Z,100300.66
2023-05-25T16:58:30.953Z,100301.69
2023-05-25T17:00:58.757Z,100290.53
2023-05-25T17:03:28.080Z,100300.78
2023-05-25T17:05:55.901Z,100293.16
2023-05-25T17:08:23.678Z,100293.97
2023-05-25T17:10:51.545Z,100299.00
2023-05-25T17:13:19.309Z,100304.75
2023-05-25T17:15:47.329Z,100303.84
2023-05-25T17:18:15.941Z,100302.88
2023-05-25T17:20:45.856Z,100300.06
2023-05-25T17:23:16.707Z,100300.09
2023-05-25T17:25:45.210Z,100309.94
2023-05-25T17:28:13.061Z,100305.81
2023-05-25T17:30:40.833Z,100313.56
2023-05-25T17:33:08.644Z,100308.66
2023-05-25T17:35:36.527Z,100294.78
2023-05-25T17:38:05.653Z,100296.09
2023-05-25T17:40:33.354Z,100307.97
2023-05-25T17:43:01.187Z,100308.69
2023-05-25T17:45:32.142Z,100303.75
2023-05-25T17:48:00.028Z,100306.81
2023-05-25T17:50:27.962Z,100306.97
2023-05-25T17:52:55.730Z,100304.06
2023-05-25T17:55:25.002Z,100315.66
2023-05-25T17:57:52.763Z,100315.06
2023-05-25T18:00:23.242Z,100314.91
2023-05-25T18:02:51.966Z,100301.16
2023-05-25T18:05:20.705Z,100309.97
2023-05-25T18:07:48.560Z,100307.41
2023-05-25T18:10:16.557Z,100314.09
2023-05-25T18:12:46.559Z,100309.94
2023-05-25T18:15:14.303Z,100308.47
2023-05-25T18:17:42.261Z,100312.09
2023-05-25T18:20:11.408Z,100315.81
2023-05-25T18:22:39.580Z,100315.72
2023-05-25T18:25:08.860Z,100313.88
2023-05-25T18:27:37.195Z,100317.38
2023-05-25T18:30:08.500Z,100310.53
2023-05-25T18:32:39.208Z,100321.44
2023-05-25T18:35:08.281Z,100330.47
2023-05-25T18:37:36.745Z,100322.69
2023-05-25T18:40:05.129Z,100323.59
2023-05-25T18:42:34.783Z,100324.06
2023-05-25T18:45:02.700Z,100326.75
2023-05-25T18:47:32.188Z,100334.25
2023-05-25T18:50:00.203Z,100338.31
2023-05-25T18:52:27.968Z,100342.50
2023-05-25T18:54:56.349Z,100340.13
2023-05-25T18:57:24.809Z,100343.69
2023-05-25T18:59:52.653Z,100344.44
2023-05-25T19:02:21.393Z,100336.75
2023-05-25T19:04:50.565Z,100340.84
2023-05-25T19:07:18.508Z,100344.81
2023-05-25T19:09:48.222Z,100347.78
2023-05-25T19:12:16.170Z,100356.03
2023-05-25T19:14:44.560Z,100353.28
2023-05-25T19:17:12.515Z,100356.25
2023-05-25T19:19:40.707Z,100360.41
2023-05-25T19:22:10.436Z,100362.63
2023-05-25T19:24:41.359Z,100367.44
2023-05-25T19:27:11.751Z,100373.19
2023-05-25T19:29:39.753Z,100371.47
2023-05-25T19:32:07.746Z,100374.69
2023-05-25T19:34:36.961Z,100378.41
2023-05-25T19:37:11.712Z,100384.09
2023-05-25T19:39:41.486Z,100383.66
2023-05-25T19:42:09.691Z,100395.06
2023-05-25T19:44:40.398Z,100395.66
2023-05-25T19:47:08.789Z,100397.09
2023-05-25T19:49:36.849Z,100395.84
2023-05-25T19:52:04.989Z,100396.88
2023-05-25T19:54:32.856Z,100403.06
2023-05-25T19:57:02.926Z,100395.22
2023-05-25T19:59:31.388Z,100397.53
2023-05-25T20:01:59.537Z,100402.28
2023-05-25T20:04:27.462Z,100404.34
2023-05-25T20:06:55.352Z,100417.09
2023-05-25T20:09:30.007Z,100418.13
2023-05-25T20:11:58.398Z,100422.28
2023-05-25T20:14:27.766Z,100422.03
2023-05-25T20:16:55.909Z,100421.59
2023-05-25T20:19:24.117Z,100426.09
2023-05-25T20:21:52.469Z,100433.63
2023-05-25T20:24:21.994Z,100423.66
2023-05-25T20:26:50.168Z,100435.91
2023-05-25T20:29:18.178Z,100426.31
2023-05-25T20:31:47.687Z,100428.13
2023-05-25T20:34:15.733Z,100441.66
2023-05-25T20:36:43.834Z,100433.88
2023-05-25T20:39:11.786Z,100436.44
2023-05-25T20:41:39.880Z,100444.66
2023-05-25T20:44:09.067Z,100443.22
2023-05-25T20:46:37.399Z,100440.56
2023-05-25T20:49:06.886Z,100445.47
2023-05-25T20:51:36.058Z,100452.31
2023-05-25T20:54:04.038Z,100457.88
2023-05-25T20:56:32.179Z,100456.28
2023-05-25T20:59:00.222Z,100461.56
2023-05-25T21:01:29.510Z,100464.19
2023-05-25T21:03:57.712Z,100459.81
2023-05-25T21:06:27.404Z,100459.34
2023-05-25T21:08:55.403Z,100465.94
2023-05-25T21:11:23.670Z,100466.19
2023-05-25T21:13:51.630Z,100473.03
2023-05-25T21:16:19.552Z,100476.06
2023-05-25T21:18:47.697Z,100477.38
2023-05-25T21:21:16.121Z,100477.09
2023-05-25T21:23:45.668Z,100484.44
2023-05-25T21:26:13.640Z,100476.09
2023-05-25T21:28:41.723Z,100486.16
2023-05-25T21:31:09.841Z,100490.09
2023-05-25T21:33:37.944Z,100488.22
2023-05-25T21:36:06.156Z,100487.19
2023-05-25T21:38:34.265Z,100483.09
2023-05-25T21:41:03.734Z,100491.25
2023-05-25T21:43:31.971Z,100492.38
2023-05-25T21:45:59.821Z,100492.97
2023-05-25T21:48:27.897Z,100499.63
2023-05-25T21:50:55.839Z,100502.91
2023-05-25T21:53:23.819Z,100504.88
2023-05-25T21:55:52.869Z,100507.00
2023-05-25T21:58:22.240Z,100498.81
2023-05-25T22:00:50.418Z,100499.06
2023-05-25T22:03:19.960Z,100507.25
2023-05-25T22:05:48.032Z,100498.53
2023-05-25T22:08:16.014Z,100502.41
2023-05-25T22:10:44.232Z,100514.19
2023-05-25T22:13:12.203Z,100508.84
2023-05-25T22:15:41.469Z,100507.03
2023-05-25T22:18:09.581Z,100513.22
2023-05-25T22:20:39.026Z,100520.78
2023-05-25T22:23:07.174Z,100525.50
2023-05-25T22:25:35.229Z,100528.00
2023-05-25T22:28:03.149Z,100520.94
2023-05-25T22:30:31.130Z,100524.13
2023-05-25T22:33:00.748Z,100528.47
2023-05-25T22:35:28.798Z,100531.97
2023-05-25T22:37:56.787Z,100532.34
2023-05-25T22:40:24.882Z,100536.09
2023-05-25T22:42:53.032Z,100540.50
2023-05-25T22:45:22.082Z,100529.72
2023-05-25T22:47:50.019Z,100534.59
2023-05-25T22:50:19.366Z,100532.56
2023-05-25T22:52:47.300Z,100542.66
2023-05-25T22:55:15.370Z,100545.06
2023-05-25T22:57:43.330Z,100548.88
2023-05-25T23:00:12.332Z,100545.66
2023-05-25T23:02:40.423Z,100544.38
2023-05-25T23:05:09.836Z,100542.06
2023-05-25T23:07:39.070Z,100539.66
2023-05-25T23:10:07.694Z,100544.56
2023-05-25T23:12:35.597Z,100540.94
2023-05-25T23:15:04.057Z,100545.75
2023-05-25T23:17:32.584Z,100548.06
2023-05-25T23:20:01.933Z,100547.94
2023-05-25T23:22:29.725Z,100555.06
2023-05-25T23:24:58.937Z,100548.47
2023-05-25T23:27:27.736Z,100548.53
2023-05-25T23:29:55.506Z,100550.06
2023-05-25T23:32:23.263Z,100549.69
2023-05-25T23:34:51.242Z,100543.91
2023-05-25T23:37:19.118Z,100549.91
2023-05-25T23:39:46.991Z,100545.63
2023-05-25T23:42:16.842Z,100552.06
2023-05-25T23:44:44.879Z,100546.69
2023-05-25T23:47:12.862Z,100558.81
2023-05-25T23:49:40.714Z,100557.69
2023-05-25T23:52:08.501Z,100555.97
2023-05-25T23:54:36.393Z,100552.34
2023-05-25T23:57:04.484Z,100557.53
2023-05-25T23:59:33.762Z,100558.94
